createdAt,value
2023-04-10T00:00:10.062Z,100988.25
2023-04-10T00:02:38.769Z,101001.66
2023-04-10T00:05:09.029Z,101010.22
2023-04-10T00:07:37.538Z,100997.13
2023-04-10T00:10:06.944Z,101014.53
2023-04-10T00:12:38.877Z,101015.00
2023-04-10T00:15:08.727Z,101014.13
2023-04-10T00:17:37.093Z,101006.13
2023-04-10T00:20:06.860Z,101012.75
2023-04-10T00:22:35.396Z,100985.75
2023-04-10T00:25:04.095Z,101011.38
2023-04-10T00:27:32.467Z,101007.84
2023-04-10T00:30:02.646Z,101016.38
2023-04-10T00:32:31.084Z,101016.22
2023-04-10T00:34:59.380Z,101014.59
2023-04-10T00:37:27.769Z,100956.88
2023-04-10T00:39:56.261Z,101006.03
2023-04-10T00:42:24.645Z,101004.00
2023-04-10T00:44:53.085Z,101011.13
2023-04-10T00:47:23.137Z,101006.47
2023-04-10T00:49:51.788Z,101013.91
2023-04-10T00:52:20.275Z,101002.59
2023-04-10T00:54:48.714Z,101008.56
2023-04-10T00:57:17.122Z,101014.34
2023-04-10T00:59:45.731Z,101007.44
2023-04-10T01:02:14.112Z,101000.69
2023-04-10T01:04:43.940Z,100999.31
2023-04-10T01:07:23.107Z,100999.34
2023-04-10T01:10:00.841Z,101004.56
2023-04-10T01:12:45.702Z,100985.03
2023-04-10T01:15:19.597Z,101014.63
2023-04-10T01:17:52.723Z,100995.22
2023-04-10T01:20:25.009Z,101005.16
2023-04-10T01:23:21.398Z,101019.44
2023-04-10T01:25:53.383Z,101017.78
2023-04-10T01:28:48.184Z,101001.38
2023-04-10T01:31:22.501Z,101011.72
2023-04-10T01:33:56.028Z,101023.44
2023-04-10T01:36:29.548Z,101025.22
2023-04-10T01:38:59.623Z,101023.44
2023-04-10T01:41:29.188Z,101010.91
2023-04-10T01:44:00.428Z,101012.53
2023-04-10T01:46:30.892Z,101009.25
2023-04-10T01:49:01.985Z,101014.94
2023-04-10T01:51:33.834Z,101004.50
2023-04-10T01:54:06.909Z,101000.13
2023-04-10T01:56:36.033Z,100994.91
2023-04-10T01:59:06.642Z,100998.72
2023-04-10T02:01:35.107Z,100989.66
2023-04-10T02:04:04.403Z,100993.13
2023-04-10T02:06:51.910Z,100996.03
2023-04-10T02:09:27.411Z,100996.19
2023-04-10T02:12:03.189Z,100989.84
2023-04-10T02:14:35.496Z,100996.59
2023-04-10T02:17:04.963Z,100988.06
2023-04-10T02:19:34.237Z,100980.91
2023-04-10T02:22:03.100Z,100981.72
2023-04-10T02:24:31.850Z,100968.88
2023-04-10T02:27:01.584Z,100974.91
2023-04-10T02:29:29.908Z,100942.81
2023-04-10T02:31:59.651Z,100977.31
2023-04-10T02:34:27.944Z,100975.38
2023-04-10T02:36:56.403Z,100970.53
2023-04-10T02:39:24.986Z,100977.03
2023-04-10T02:41:53.886Z,100979.34
2023-04-10T02:44:22.244Z,100970.41
2023-04-10T02:46:50.802Z,100980.56
2023-04-10T02:49:20.865Z,100981.47
2023-04-10T02:51:49.267Z,100982.78
2023-04-10T02:54:17.676Z,100985.41
2023-04-10T02:56:46.365Z,100972.44
2023-04-10T02:59:14.738Z,100976.19
2023-04-10T03:01:43.422Z,100970.81
2023-04-10T03:04:11.980Z,100979.47
2023-04-10T03:06:43.599Z,100978.53
2023-04-10T03:09:12.102Z,100969.56
2023-04-10T03:11:40.445Z,100977.00
2023-04-10T03:14:09.761Z,100973.28
2023-04-10T03:16:38.288Z,100962.28
2023-04-10T03:19:06.763Z,100949.56
2023-04-10T03:21:35.227Z,100967.22
2023-04-10T03:24:07.296Z,100950.50
2023-04-10T03:26:35.827Z,100962.75
2023-04-10T03:29:04.629Z,100957.00
2023-04-10T03:31:33.007Z,100951.50
2023-04-10T03:34:02.536Z,100949.84
2023-04-10T03:36:30.944Z,100950.91
2023-04-10T03:38:59.396Z,100956.03
2023-04-10T03:41:29.104Z,100952.72
2023-04-10T03:43:57.570Z,100951.19
2023-04-10T03:46:26.469Z,100945.34
2023-04-10T03:48:55.311Z,100952.25
2023-04-10T03:51:24.707Z,100957.91
2023-04-10T03:53:53.743Z,100955.28
2023-04-10T03:56:22.655Z,100947.38
2023-04-10T03:58:52.499Z,100946.44
2023-04-10T04:01:22.159Z,100953.91
2023-04-10T04:04:05.353Z,100954.69
2023-04-10T04:06:51.643Z,100954.97
2023-04-10T04:09:48.983Z,100952.81
2023-04-10T04:12:26.434Z,100931.78
2023-04-10T04:15:11.539Z,100944.88
2023-04-10T04:18:02.865Z,100946.13
2023-04-10T04:20:37.767Z,100937.72
2023-04-10T04:23:21.175Z,100946.91
2023-04-10T04:26:15.601Z,100941.97
2023-04-10T04:29:02.376Z,100947.47
2023-04-10T04:31:55.553Z,100950.72
2023-04-10T04:34:55.612Z,100946.75
2023-04-10T04:37:47.191Z,100946.91
2023-04-10T04:40:33.866Z,100959.59
2023-04-10T04:43:12.269Z,100960.22
2023-04-10T04:46:00.940Z,100951.75
2023-04-10T04:48:50.644Z,100944.69
2023-04-10T04:51:32.492Z,100963.41
2023-04-10T04:54:06.546Z,100943.97
2023-04-10T04:56:50.085Z,100944.25
2023-04-10T04:59:50.455Z,100955.16
2023-04-10T05:02:38.945Z,100955.69
2023-04-10T05:05:28.835Z,100909.91
2023-04-10T05:08:10.731Z,100935.81
2023-04-10T05:11:01.932Z,100954.22
2023-04-10T05:13:42.339Z,100961.25
2023-04-10T05:16:18.538Z,100955.09
2023-04-10T05:19:16.346Z,100959.94
2023-04-10T05:22:06.279Z,100955.25
2023-04-10T05:24:55.433Z,100937.25
2023-04-10T05:27:29.577Z,100953.16
2023-04-10T05:30:15.394Z,100966.19
2023-04-10T05:33:06.724Z,100958.34
2023-04-10T05:35:50.384Z,100971.28
2023-04-10T05:38:37.648Z,100977.91
2023-04-10T05:41:29.544Z,100966.19
2023-04-10T05:44:18.141Z,100976.78
2023-04-10T05:47:19.529Z,100985.25
2023-04-10T05:49:57.617Z,100979.72
2023-04-10T05:52:48.636Z,100976.28
2023-04-10T05:55:36.308Z,100980.16
2023-04-10T05:58:36.679Z,100983.97
2023-04-10T06:01:27.664Z,100979.56
2023-04-10T06:04:00.678Z,100979.84
2023-04-10T06:06:29.772Z,100969.53
2023-04-10T06:08:58.249Z,100952.59
2023-04-10T06:11:28.023Z,100978.78
2023-04-10T06:13:58.190Z,100976.31
2023-04-10T06:16:34.072Z,100968.31
2023-04-10T06:19:02.772Z,100977.13
2023-04-10T06:21:31.799Z,100950.13
2023-04-10T06:24:00.185Z,100965.13
2023-04-10T06:26:29.933Z,100955.66
2023-04-10T06:28:58.606Z,100962.38
2023-04-10T06:31:27.380Z,100969.28
2023-04-10T06:33:56.537Z,100954.50
2023-04-10T06:36:26.091Z,100958.75
2023-04-10T06:39:02.736Z,100957.53
2023-04-10T06:41:32.605Z,100958.34
2023-04-10T06:44:13.189Z,100958.66
2023-04-10T06:46:41.676Z,100956.47
2023-04-10T06:49:10.069Z,100969.97
2023-04-10T06:51:38.409Z,100970.38
2023-04-10T06:54:06.760Z,100963.06
2023-04-10T06:56:36.506Z,100937.03
2023-04-10T06:59:04.853Z,100963.81
2023-04-10T07:01:33.233Z,100966.09
2023-04-10T07:04:01.565Z,100973.88
2023-04-10T07:06:29.915Z,100966.84
2023-04-10T07:08:58.224Z,100957.41
2023-04-10T07:11:26.542Z,100958.28
2023-04-10T07:13:58.453Z,100959.59
2023-04-10T07:16:27.607Z,100955.16
2023-04-10T07:18:56.537Z,100953.81
2023-04-10T07:21:25.199Z,100942.44
2023-04-10T07:23:53.533Z,100955.88
2023-04-10T07:26:21.906Z,100948.88
2023-04-10T07:28:50.235Z,100949.31
2023-04-10T07:31:20.289Z,100959.47
2023-04-10T07:33:48.791Z,100951.38
2023-04-10T07:36:17.183Z,100940.31
2023-04-10T07:38:45.647Z,100943.91
2023-04-10T07:41:14.161Z,100942.88
2023-04-10T07:43:42.551Z,100947.22
2023-04-10T07:46:11.233Z,100940.97
2023-04-10T07:48:41.077Z,100940.88
2023-04-10T07:51:10.266Z,100933.44
2023-04-10T07:53:39.887Z,100940.69
2023-04-10T07:56:15.718Z,100944.66
2023-04-10T07:58:44.229Z,100892.09
2023-04-10T08:01:12.745Z,100864.84
2023-04-10T08:03:44.343Z,100922.38
2023-04-10T08:06:13.609Z,100914.97
2023-04-10T08:08:43.583Z,100923.06
2023-04-10T08:11:25.771Z,100911.84
2023-04-10T08:13:54.765Z,100911.81
2023-04-10T08:16:26.228Z,100902.50
2023-04-10T08:18:57.664Z,100900.25
2023-04-10T08:21:27.290Z,100901.56
2023-04-10T08:23:57.480Z,100897.38
2023-04-10T08:26:28.064Z,100901.34
2023-04-10T08:28:59.891Z,100893.59
2023-04-10T08:31:30.315Z,100883.22
2023-04-10T08:34:00.526Z,100892.16
2023-04-10T08:36:29.376Z,100853.09
2023-04-10T08:38:57.717Z,100869.78
2023-04-10T08:41:26.538Z,100866.66
2023-04-10T08:43:55.355Z,100869.44
2023-04-10T08:46:26.152Z,100868.56
2023-04-10T08:49:02.704Z,100861.72
2023-04-10T08:51:38.341Z,100857.06
2023-04-10T08:54:09.496Z,100822.03
2023-04-10T08:56:40.899Z,100848.88
2023-04-10T08:59:09.919Z,100857.00
2023-04-10T09:01:38.653Z,100840.88
2023-04-10T09:04:08.838Z,100853.59
2023-04-10T09:06:37.271Z,100844.53
2023-04-10T09:09:07.212Z,100849.63
2023-04-10T09:12:00.910Z,100838.78
2023-04-10T09:14:31.920Z,100821.25
2023-04-10T09:17:20.718Z,100825.53
2023-04-10T09:19:53.441Z,100832.91
2023-04-10T09:22:33.061Z,100817.13
2023-04-10T09:25:02.805Z,100816.38
2023-04-10T09:27:33.718Z,100813.38
2023-04-10T09:30:02.512Z,100779.81
2023-04-10T09:32:42.742Z,100797.03
2023-04-10T09:35:14.822Z,100796.63
2023-04-10T09:37:46.762Z,100781.59
2023-04-10T09:40:24.479Z,100786.97
2023-04-10T09:42:53.744Z,100792.78
2023-04-10T09:45:23.027Z,100776.53
2023-04-10T09:48:06.108Z,100784.13
2023-04-10T09:50:40.984Z,100785.00
2023-04-10T09:53:10.357Z,100769.63
2023-04-10T09:55:38.916Z,100760.06
2023-04-10T09:58:07.516Z,100763.78
2023-04-10T10:00:43.088Z,100757.84
2023-04-10T10:03:14.048Z,100759.22
2023-04-10T10:05:46.990Z,100751.44
2023-04-10T10:08:16.578Z,100744.50
2023-04-10T10:10:48.418Z,100740.41
2023-04-10T10:13:25.744Z,100732.25
2023-04-10T10:16:05.894Z,100732.44
2023-04-10T10:18:41.442Z,100723.41
2023-04-10T10:21:11.695Z,100699.88
2023-04-10T10:23:40.677Z,100719.94
2023-04-10T10:26:11.409Z,100716.03
2023-04-10T10:28:41.927Z,100713.16
2023-04-10T10:31:11.699Z,100696.63
2023-04-10T10:33:40.274Z,100715.97
2023-04-10T10:36:11.458Z,100700.50
2023-04-10T10:38:47.757Z,100660.75
2023-04-10T10:41:24.947Z,100702.59
2023-04-10T10:44:02.693Z,100684.41
2023-04-10T10:46:39.521Z,100672.38
2023-04-10T10:49:07.892Z,100674.91
2023-04-10T10:51:49.229Z,100671.91
2023-04-10T10:54:34.008Z,100659.81
2023-04-10T10:57:06.463Z,100664.19
2023-04-10T10:59:57.793Z,100655.59
2023-04-10T11:02:26.823Z,100648.91
2023-04-10T11:04:55.534Z,100612.75
2023-04-10T11:08:09.229Z,100600.69
2023-04-10T11:11:03.034Z,100643.16
2023-04-10T11:13:31.502Z,100638.00
2023-04-10T11:16:02.124Z,100622.47
2023-04-10T11:19:13.977Z,100614.13
2023-04-10T11:22:05.720Z,100550.03
2023-04-10T11:25:08.623Z,100596.09
2023-04-10T11:27:49.667Z,100580.69
2023-04-10T11:30:36.270Z,100588.59
2023-04-10T11:33:06.721Z,100580.72
2023-04-10T11:35:35.572Z,100518.91
2023-04-10T11:38:12.738Z,100582.53
2023-04-10T11:41:04.600Z,100584.28
2023-04-10T11:43:33.773Z,100576.19
2023-04-10T11:46:04.656Z,100564.09
2023-04-10T11:48:33.428Z,100572.44
2023-04-10T11:51:09.378Z,100572.59
2023-04-10T11:53:38.560Z,100556.44
2023-04-10T11:56:18.199Z,100559.38
2023-04-10T11:58:46.561Z,100555.06
2023-04-10T12:01:15.680Z,100552.03
2023-04-10T12:03:46.132Z,100509.00
2023-04-10T12:06:16.675Z,100539.41
2023-04-10T12:08:47.739Z,100533.44
2023-04-10T12:11:21.279Z,100526.31
2023-04-10T12:13:49.997Z,100505.00
2023-04-10T12:16:18.651Z,100523.78
2023-04-10T12:18:47.523Z,100525.78
2023-04-10T12:21:16.225Z,100529.66
2023-04-10T12:23:44.582Z,100513.88
2023-04-10T12:26:16.903Z,100499.56
2023-04-10T12:28:57.555Z,100488.81
2023-04-10T12:31:30.102Z,100500.16
2023-04-10T12:33:58.787Z,100492.25
2023-04-10T12:36:30.226Z,100504.31
2023-04-10T12:38:59.761Z,100494.28
2023-04-10T12:41:32.101Z,100490.03
2023-04-10T12:44:12.497Z,100494.69
2023-04-10T12:46:42.111Z,100471.56
2023-04-10T12:49:12.867Z,100468.53
2023-04-10T12:51:46.417Z,100478.94
2023-04-10T12:54:30.067Z,100482.56
2023-04-10T12:57:00.571Z,100478.88
2023-04-10T12:59:30.891Z,100465.28
2023-04-10T13:01:59.541Z,100472.25
2023-04-10T13:04:28.408Z,100462.19
2023-04-10T13:06:57.164Z,100448.81
2023-04-10T13:09:25.575Z,100454.94
2023-04-10T13:11:53.904Z,100438.81
2023-04-10T13:14:23.958Z,100443.66
2023-04-10T13:16:52.310Z,100428.13
2023-04-10T13:19:20.681Z,100425.53
2023-04-10T13:21:51.986Z,100426.81
2023-04-10T13:24:20.387Z,100427.41
2023-04-10T13:26:48.727Z,100426.94
2023-04-10T13:29:17.157Z,100421.03
2023-04-10T13:31:46.962Z,100422.28
2023-04-10T13:34:15.431Z,100412.75
2023-04-10T13:36:44.236Z,100414.78
2023-04-10T13:39:12.734Z,100403.00
2023-04-10T13:41:41.333Z,100393.84
2023-04-10T13:44:09.858Z,100414.16
2023-04-10T13:46:38.250Z,100395.44
2023-04-10T13:49:08.037Z,100380.47
2023-04-10T13:51:36.444Z,100391.38
2023-04-10T13:54:05.198Z,100395.13
2023-04-10T13:56:33.472Z,100384.88
2023-04-10T13:59:01.861Z,100370.50
2023-04-10T14:01:30.346Z,100365.28
2023-04-10T14:03:58.940Z,100367.47
2023-04-10T14:06:29.017Z,100333.22
2023-04-10T14:08:57.356Z,100362.03
2023-04-10T14:11:26.720Z,100353.53
2023-04-10T14:13:55.391Z,100348.75
2023-04-10T14:16:23.832Z,100352.59
2023-04-10T14:18:52.259Z,100357.47
2023-04-10T14:21:20.899Z,100336.56
2023-04-10T14:23:50.688Z,100331.13
2023-04-10T14:26:19.103Z,100326.47
2023-04-10T14:28:47.713Z,100323.44
2023-04-10T14:31:16.229Z,100320.06
2023-04-10T14:33:44.737Z,100328.06
2023-04-10T14:36:13.159Z,100298.81
2023-04-10T14:38:41.604Z,100307.06
2023-04-10T14:41:11.649Z,100311.97
2023-04-10T14:43:40.048Z,100291.38
2023-04-10T14:46:08.760Z,100298.13
2023-04-10T14:48:37.193Z,100287.31
2023-04-10T14:51:12.657Z,100288.84
2023-04-10T14:53:42.326Z,100282.47
2023-04-10T14:56:15.931Z,100278.28
2023-04-10T14:58:44.876Z,100278.53
2023-04-10T15:01:13.909Z,100266.56
2023-04-10T15:03:42.329Z,100254.50
2023-04-10T15:06:10.937Z,100249.34
2023-04-10T15:08:39.336Z,100244.94
2023-04-10T15:11:07.989Z,100233.56
2023-04-10T15:13:39.494Z,100233.13
2023-04-10T15:16:09.174Z,100241.47
2023-04-10T15:18:37.584Z,100227.53
2023-04-10T15:21:07.121Z,100231.94
2023-04-10T15:23:35.548Z,100229.97
2023-04-10T15:26:03.893Z,100234.88
2023-04-10T15:28:32.215Z,100227.22
2023-04-10T15:31:01.957Z,100219.22
2023-04-10T15:33:30.369Z,100211.97
2023-04-10T15:35:58.770Z,100206.06
2023-04-10T15:38:28.765Z,100153.06
2023-04-10T15:40:57.435Z,100193.16
2023-04-10T15:43:25.732Z,100185.06
2023-04-10T15:45:54.103Z,100188.31
2023-04-10T15:48:24.718Z,100174.75
2023-04-10T15:50:53.122Z,100167.19
2023-04-10T15:53:21.518Z,100160.94
2023-04-10T15:55:49.862Z,100154.66
2023-04-10T15:58:18.234Z,100156.72
2023-04-10T16:00:46.654Z,100150.06
2023-04-10T16:03:15.370Z,100152.25
2023-04-10T16:05:45.309Z,100138.94
2023-04-10T16:08:13.681Z,100128.91
2023-04-10T16:10:42.021Z,100085.38
2023-04-10T16:13:10.365Z,100122.59
2023-04-10T16:15:40.587Z,100133.66
2023-04-10T16:18:09.412Z,100031.88
2023-04-10T16:20:38.506Z,100133.09
2023-04-10T16:23:08.449Z,100116.59
2023-04-10T16:25:36.868Z,100129.34
2023-04-10T16:28:07.885Z,100127.63
2023-04-10T16:30:36.605Z,100123.31
2023-04-10T16:33:05.206Z,100126.38
2023-04-10T16:35:33.677Z,100120.47
2023-04-10T16:38:02.110Z,100125.88
2023-04-10T16:40:33.225Z,100118.69
2023-04-10T16:43:01.990Z,100120.56
2023-04-10T16:45:30.751Z,100115.00
2023-04-10T16:47:59.187Z,100112.09
2023-04-10T16:50:27.607Z,100111.06
2023-04-10T16:52:56.005Z,100100.59
2023-04-10T16:55:24.333Z,100093.78
2023-04-10T16:57:54.051Z,100087.28
2023-04-10T17:00:22.813Z,100086.94
2023-04-10T17:02:51.134Z,100077.78
2023-04-10T17:05:19.640Z,100079.75
2023-04-10T17:07:48.157Z,100081.94
2023-04-10T17:10:16.777Z,100071.88
2023-04-10T17:12:45.870Z,100071.88
2023-04-10T17:15:15.874Z,100064.59
2023-04-10T17:17:44.307Z,100074.53
2023-04-10T17:20:17.206Z,100073.28
2023-04-10T17:22:46.163Z,100076.53
2023-04-10T17:25:14.779Z,100065.16
2023-04-10T17:27:43.222Z,100059.00
2023-04-10T17:30:15.381Z,100050.63
2023-04-10T17:32:43.833Z,100053.56
2023-04-10T17:35:12.261Z,100045.09
2023-04-10T17:37:40.634Z,100041.16
2023-04-10T17:40:12.055Z,100033.63
2023-04-10T17:42:40.427Z,100044.16
2023-04-10T17:45:09.776Z,100036.03
2023-04-10T17:47:40.079Z,100048.16
2023-04-10T17:50:10.647Z,100046.19
2023-04-10T17:52:39.130Z,100058.69
2023-04-10T17:55:08.808Z,100042.09
2023-04-10T17:57:37.133Z,100022.41
2023-04-10T18:00:09.794Z,100024.63
2023-04-10T18:02:39.876Z,100024.69
2023-04-10T18:05:09.198Z,100017.53
2023-04-10T18:07:38.005Z,100005.97
2023-04-10T18:10:09.675Z,100014.53
2023-04-10T18:12:39.339Z,100027.84
2023-04-10T18:15:09.542Z,100048.56
2023-04-10T18:17:39.580Z,100041.25
2023-04-10T18:20:08.720Z,100051.44
2023-04-10T18:22:37.113Z,100044.63
2023-04-10T18:25:06.405Z,100042.53
2023-04-10T18:27:35.975Z,100031.06
2023-04-10T18:30:04.599Z,100013.66
2023-04-10T18:32:33.098Z,100013.22
2023-04-10T18:35:03.671Z,100019.69
2023-04-10T18:37:32.361Z,100011.81
2023-04-10T18:40:06.392Z,100014.38
2023-04-10T18:42:42.089Z,100012.38
2023-04-10T18:45:13.055Z,100017.81
2023-04-10T18:47:41.577Z,100020.38
2023-04-10T18:50:12.188Z,100014.56
2023-04-10T18:52:40.612Z,100028.00
2023-04-10T18:55:09.934Z,100035.38
2023-04-10T18:57:38.297Z,100032.63
2023-04-10T19:00:08.372Z,100029.34
2023-04-10T19:02:37.043Z,100021.69
2023-04-10T19:05:06.167Z,100024.94
2023-04-10T19:07:35.964Z,100036.59
2023-04-10T19:10:04.416Z,100029.09
2023-04-10T19:12:35.096Z,100036.59
2023-04-10T19:15:05.267Z,100040.31
2023-04-10T19:17:33.695Z,100037.28
2023-04-10T19:20:02.634Z,100019.31
2023-04-10T19:22:32.867Z,100022.00
2023-04-10T19:25:02.626Z,100019.78
2023-04-10T19:27:31.138Z,100020.97
2023-04-10T19:29:59.496Z,100016.47
2023-04-10T19:32:27.816Z,100004.72
2023-04-10T19:34:56.418Z,100010.19
2023-04-10T19:37:24.712Z,100001.97
2023-04-10T19:39:53.092Z,100002.63
2023-04-10T19:42:22.844Z,100010.63
2023-04-10T19:44:51.173Z,100005.38
2023-04-10T19:47:19.510Z,100005.97
2023-04-10T19:49:47.882Z,100004.38
2023-04-10T19:52:16.304Z,99998.47
2023-04-10T19:54:44.651Z,99985.34
2023-04-10T19:57:13.036Z,99983.13
2023-04-10T19:59:42.791Z,99973.38
2023-04-10T20:02:12.270Z,99976.34
2023-04-10T20:04:40.702Z,99977.44
2023-04-10T20:07:10.827Z,99969.59
2023-04-10T20:09:39.145Z,99956.31
2023-04-10T20:12:08.534Z,99943.91
2023-04-10T20:14:36.923Z,99944.84
2023-04-10T20:17:07.663Z,99957.16
2023-04-10T20:19:36.007Z,99944.03
2023-04-10T20:22:04.495Z,99931.88
2023-04-10T20:24:32.876Z,99937.63
2023-04-10T20:27:01.606Z,99927.38
2023-04-10T20:29:29.948Z,99925.78
2023-04-10T20:31:58.435Z,99923.56
2023-04-10T20:34:28.329Z,99915.22
2023-04-10T20:36:56.732Z,99921.00
2023-04-10T20:39:25.448Z,99913.00
2023-04-10T20:41:54.266Z,99905.94
2023-04-10T20:44:22.650Z,99904.81
2023-04-10T20:46:51.313Z,99911.41
2023-04-10T20:49:19.645Z,99893.84
2023-04-10T20:51:49.504Z,99901.22
2023-04-10T20:54:18.991Z,99884.81
2023-04-10T20:56:47.767Z,99880.91
2023-04-10T20:59:16.204Z,99878.91
2023-04-10T21:01:44.631Z,99885.41
2023-04-10T21:04:13.166Z,99890.88
2023-04-10T21:06:41.508Z,99898.69
2023-04-10T21:09:11.231Z,99888.28
2023-04-10T21:11:39.542Z,99891.53
2023-04-10T21:14:08.010Z,99887.38
2023-04-10T21:16:41.169Z,99870.50
2023-04-10T21:19:09.711Z,99853.75
2023-04-10T21:21:38.324Z,99816.81
2023-04-10T21:24:07.637Z,99848.06
2023-04-10T21:26:37.341Z,99859.50
2023-04-10T21:29:05.754Z,99853.41
2023-04-10T21:31:34.136Z,99791.59
2023-04-10T21:34:02.478Z,99823.69
2023-04-10T21:36:31.310Z,99808.06
2023-04-10T21:38:59.804Z,99794.09
2023-04-10T21:41:28.235Z,99789.59
2023-04-10T21:44:00.318Z,99800.25
2023-04-10T21:46:28.902Z,99792.25
2023-04-10T21:48:57.352Z,99793.88
2023-04-10T21:51:26.915Z,99800.09
2023-04-10T21:53:55.449Z,99791.03
2023-04-10T21:56:23.778Z,99788.31
2023-04-10T21:58:53.021Z,99787.47
2023-04-10T22:01:23.214Z,99783.72
2023-04-10T22:03:51.944Z,99781.53
2023-04-10T22:06:20.423Z,99776.28
2023-04-10T22:08:48.694Z,99783.34
2023-04-10T22:11:17.109Z,99784.66
2023-04-10T22:13:45.460Z,99792.94
2023-04-10T22:16:13.784Z,99800.00
2023-04-10T22:18:43.482Z,99811.41
2023-04-10T22:21:13.350Z,99813.03
2023-04-10T22:23:41.652Z,99805.91
2023-04-10T22:26:09.950Z,99832.13
2023-04-10T22:28:38.203Z,99853.25
2023-04-10T22:31:06.813Z,99834.97
2023-04-10T22:33:35.168Z,99839.75
2023-04-10T22:36:05.705Z,99824.00
2023-04-10T22:38:34.089Z,99830.22
2023-04-10T22:41:02.460Z,99847.88
2023-04-10T22:43:30.908Z,99846.88
2023-04-10T22:45:59.181Z,99852.66
2023-04-10T22:48:27.725Z,99853.25
2023-04-10T22:50:56.034Z,99856.34
2023-04-10T22:53:25.744Z,99854.94
2023-04-10T22:55:54.140Z,99843.66
2023-04-10T22:58:22.571Z,99833.13
2023-04-10T23:00:50.943Z,99835.13
2023-04-10T23:03:19.283Z,99830.00
2023-04-10T23:05:48.008Z,99818.28
2023-04-10T23:08:16.377Z,99818.28
2023-04-10T23:10:46.056Z,99806.97
2023-04-10T23:13:14.451Z,99810.22
2023-04-10T23:15:49.536Z,99812.88
2023-04-10T23:18:18.356Z,99806.91
2023-04-10T23:20:47.401Z,99824.47
2023-04-10T23:23:15.987Z,99823.47
2023-04-10T23:25:45.784Z,99824.06
2023-04-10T23:28:14.323Z,99829.78
2023-04-10T23:30:43.171Z,99826.34
2023-04-10T23:33:11.512Z,99824.13
2023-04-10T23:35:39.888Z,99820.72
2023-04-10T23:38:08.397Z,99814.00
2023-04-10T23:40:36.763Z,99822.75
2023-04-10T23:43:06.704Z,99752.25
2023-04-10T23:45:35.106Z,99818.69
2023-04-10T23:48:03.466Z,99805.53
2023-04-10T23:50:31.903Z,99839.53
2023-04-10T23:53:00.713Z,99837.97
2023-04-10T23:55:29.342Z,99829.66
2023-04-10T23:57:57.705Z,99828.41
